sensor_id;sensor_type;location;lat;lon;timestamp;P1;durP1;ratioP1;P2;durP2;ratioP2
51298;SDS011;37382;45.192;9.790;2023-09-18T04:25:27;49.50;;;29.80;;
51298;SDS011;37382;45.192;9.790;2023-09-18T04:27:54;41.28;;;30.25;;
51298;SDS011;37382;45.192;9.790;2023-09-18T04:30:23;40.22;;;30.55;;
51298;SDS011;37382;45.192;9.790;2023-09-18T04:32:50;50.72;;;30.95;;
51298;SDS011;37382;45.192;9.790;2023-09-18T04:35:20;47.08;;;31.20;;
51298;SDS011;37382;45.192;9.790;2023-09-18T04:37:47;38.13;;;31.23;;
51298;SDS011;37382;45.192;9.790;2023-09-18T04:40:15;46.70;;;29.45;;
51298;SDS011;37382;45.192;9.790;2023-09-18T04:42:43;49.13;;;30.27;;
51298;SDS011;37382;45.192;9.790;2023-09-18T04:45:11;46.13;;;29.80;;
51298;SDS011;37382;45.192;9.790;2023-09-18T04:47:39;43.20;;;28.25;;
51298;SDS011;37382;45.192;9.790;2023-09-18T04:50:06;46.80;;;29.15;;
51298;SDS011;37382;45.192;9.790;2023-09-18T04:52:40;41.90;;;30.77;;
51298;SDS011;37382;45.192;9.790;2023-09-18T04:55:10;42.92;;;30.60;;
51298;SDS011;37382;45.192;9.790;2023-09-18T04:57:38;39.83;;;29.90;;
51298;SDS011;37382;45.192;9.790;2023-09-18T05:00:05;39.60;;;29.45;;
51298;SDS011;37382;45.192;9.790;2023-09-18T05:02:44;35.15;;;28.13;;
51298;SDS011;37382;45.192;9.790;2023-09-18T05:05:12;37.67;;;29.27;;
51298;SDS011;37382;45.192;9.790;2023-09-18T05:07:41;35.08;;;28.35;;
51298;SDS011;37382;45.192;9.790;2023-09-18T05:10:09;39.15;;;29.65;;
51298;SDS011;37382;45.192;9.790;2023-09-18T05:12:38;38.47;;;30.85;;
51298;SDS011;37382;45.192;9.790;2023-09-18T05:15:07;42.08;;;31.83;;
51298;SDS011;37382;45.192;9.790;2023-09-18T05:17:40;36.42;;;29.77;;
51298;SDS011;37382;45.192;9.790;2023-09-18T05:20:11;43.78;;;30.77;;
51298;SDS011;37382;45.192;9.790;2023-09-18T05:22:42;45.08;;;32.42;;
51298;SDS011;37382;45.192;9.790;2023-09-18T05:25:10;46.28;;;34.22;;
51298;SDS011;37382;45.192;9.790;2023-09-18T05:27:38;51.65;;;38.13;;
51298;SDS011;37382;45.192;9.790;2023-09-18T05:30:14;63.53;;;39.22;;
51298;SDS011;37382;45.192;9.790;2023-09-18T05:32:43;54.15;;;41.03;;
51298;SDS011;37382;45.192;9.790;2023-09-18T05:35:13;54.92;;;41.45;;
51298;SDS011;37382;45.192;9.790;2023-09-18T05:37:41;65.38;;;42.17;;
51298;SDS011;37382;45.192;9.790;2023-09-18T05:40:10;63.00;;;42.90;;
51298;SDS011;37382;45.192;9.790;2023-09-18T05:42:41;65.77;;;44.23;;
51298;SDS011;37382;45.192;9.790;2023-09-18T05:45:13;56.25;;;42.47;;
51298;SDS011;37382;45.192;9.790;2023-09-18T05:47:44;63.78;;;45.20;;
51298;SDS011;37382;45.192;9.790;2023-09-18T05:50:12;62.38;;;44.72;;
51298;SDS011;37382;45.192;9.790;2023-09-18T05:52:44;63.15;;;43.92;;
51298;SDS011;37382;45.192;9.790;2023-09-18T05:55:13;65.43;;;45.08;;
51298;SDS011;37382;45.192;9.790;2023-09-18T05:57:42;58.38;;;45.30;;
51298;SDS011;37382;45.192;9.790;2023-09-18T06:00:10;62.50;;;44.65;;
51298;SDS011;37382;45.192;9.790;2023-09-18T06:02:40;62.35;;;44.03;;
51298;SDS011;37382;45.192;9.790;2023-09-18T06:05:08;58.28;;;44.33;;
51298;SDS011;37382;45.192;9.790;2023-09-18T06:07:40;65.85;;;45.15;;
51298;SDS011;37382;45.192;9.790;2023-09-18T06:10:08;69.78;;;48.70;;
51298;SDS011;37382;45.192;9.790;2023-09-18T06:12:39;74.70;;;51.35;;
51298;SDS011;37382;45.192;9.790;2023-09-18T06:17:41;70.35;;;51.42;;
51298;SDS011;37382;45.192;9.790;2023-09-18T06:20:11;67.75;;;50.70;;
51298;SDS011;37382;45.192;9.790;2023-09-18T06:22:44;66.38;;;48.42;;
51298;SDS011;37382;45.192;9.790;2023-09-18T06:25:11;64.38;;;48.75;;
51298;SDS011;37382;45.192;9.790;2023-09-18T06:27:40;70.30;;;48.42;;
51298;SDS011;37382;45.192;9.790;2023-09-18T06:30:09;62.33;;;49.28;;
51298;SDS011;37382;45.192;9.790;2023-09-18T06:32:37;72.95;;;51.58;;
51298;SDS011;37382;45.192;9.790;2023-09-18T06:35:05;66.10;;;49.85;;
51298;SDS011;37382;45.192;9.790;2023-09-18T06:37:33;65.40;;;50.00;;
51298;SDS011;37382;45.192;9.790;2023-09-18T06:40:01;68.63;;;50.53;;
51298;SDS011;37382;45.192;9.790;2023-09-18T06:42:46;68.13;;;49.65;;
51298;SDS011;37382;45.192;9.790;2023-09-18T06:45:14;71.70;;;51.75;;
51298;SDS011;37382;45.192;9.790;2023-09-18T06:47:41;69.32;;;49.70;;
51298;SDS011;37382;45.192;9.790;2023-09-18T06:50:09;70.03;;;49.65;;
51298;SDS011;37382;45.192;9.790;2023-09-18T06:52:39;69.47;;;50.75;;
51298;SDS011;37382;45.192;9.790;2023-09-18T06:55:07;73.25;;;50.22;;
51298;SDS011;37382;45.192;9.790;2023-09-18T06:57:35;71.47;;;50.60;;
51298;SDS011;37382;45.192;9.790;2023-09-18T07:00:02;77.65;;;54.03;;
51298;SDS011;37382;45.192;9.790;2023-09-18T07:02:32;75.35;;;53.10;;
51298;SDS011;37382;45.192;9.790;2023-09-18T07:04:59;75.78;;;52.85;;
51298;SDS011;37382;45.192;9.790;2023-09-18T07:07:27;74.05;;;50.38;;
51298;SDS011;37382;45.192;9.790;2023-09-18T07:09:54;72.53;;;52.63;;
51298;SDS011;37382;45.192;9.790;2023-09-18T07:12:25;70.45;;;51.65;;
51298;SDS011;37382;45.192;9.790;2023-09-18T07:14:53;74.57;;;53.90;;
51298;SDS011;37382;45.192;9.790;2023-09-18T07:17:21;74.07;;;51.67;;
51298;SDS011;37382;45.192;9.790;2023-09-18T07:19:48;77.30;;;54.92;;
51298;SDS011;37382;45.192;9.790;2023-09-18T07:22:16;73.18;;;54.53;;
51298;SDS011;37382;45.192;9.790;2023-09-18T07:24:44;74.03;;;56.03;;
51298;SDS011;37382;45.192;9.790;2023-09-18T07:27:13;73.95;;;52.65;;
51298;SDS011;37382;45.192;9.790;2023-09-18T07:29:40;87.97;;;56.88;;
51298;SDS011;37382;45.192;9.790;2023-09-18T07:32:08;81.03;;;53.97;;
51298;SDS011;37382;45.192;9.790;2023-09-18T07:34:36;83.78;;;55.90;;
51298;SDS011;37382;45.192;9.790;2023-09-18T07:37:04;78.53;;;52.58;;
51298;SDS011;37382;45.192;9.790;2023-09-18T07:39:32;79.47;;;50.53;;
51298;SDS011;37382;45.192;9.790;2023-09-18T07:42:00;78.57;;;52.10;;
51298;SDS011;37382;45.192;9.790;2023-09-18T07:44:28;79.05;;;51.67;;
51298;SDS011;37382;45.192;9.790;2023-09-18T07:46:55;70.75;;;49.15;;
51298;SDS011;37382;45.192;9.790;2023-09-18T07:49:23;78.40;;;52.75;;
51298;SDS011;37382;45.192;9.790;2023-09-18T07:51:51;79.75;;;51.53;;
51298;SDS011;37382;45.192;9.790;2023-09-18T07:54:18;76.53;;;51.17;;
51298;SDS011;37382;45.192;9.790;2023-09-18T07:56:46;78.65;;;51.65;;
51298;SDS011;37382;45.192;9.790;2023-09-18T07:59:14;74.72;;;48.95;;
51298;SDS011;37382;45.192;9.790;2023-09-18T08:01:44;84.30;;;50.92;;
51298;SDS011;37382;45.192;9.790;2023-09-18T08:04:12;76.45;;;50.45;;
51298;SDS011;37382;45.192;9.790;2023-09-18T08:06:40;79.82;;;53.13;;
51298;SDS011;37382;45.192;9.790;2023-09-18T08:09:08;77.03;;;52.25;;
51298;SDS011;37382;45.192;9.790;2023-09-18T08:11:39;76.30;;;49.83;;
51298;SDS011;37382;45.192;9.790;2023-09-18T08:14:13;73.57;;;49.35;;
51298;SDS011;37382;45.192;9.790;2023-09-18T08:16:40;85.78;;;50.30;;
51298;SDS011;37382;45.192;9.790;2023-09-18T08:19:08;72.80;;;50.22;;
51298;SDS011;37382;45.192;9.790;2023-09-18T08:21:36;73.43;;;46.08;;
51298;SDS011;37382;45.192;9.790;2023-09-18T08:24:04;70.68;;;48.88;;
51298;SDS011;37382;45.192;9.790;2023-09-18T08:26:32;66.15;;;45.60;;
51298;SDS011;37382;45.192;9.790;2023-09-18T08:29:00;78.25;;;47.58;;
51298;SDS011;37382;45.192;9.790;2023-09-18T08:31:28;65.22;;;43.75;;
51298;SDS011;37382;45.192;9.790;2023-09-18T08:33:58;69.00;;;47.53;;
51298;SDS011;37382;45.192;9.790;2023-09-18T08:36:26;62.50;;;42.40;;
51298;SDS011;37382;45.192;9.790;2023-09-18T08:38:56;62.65;;;42.03;;
51298;SDS011;37382;45.192;9.790;2023-09-18T08:41:24;62.75;;;42.38;;
51298;SDS011;37382;45.192;9.790;2023-09-18T08:43:56;57.65;;;42.22;;
51298;SDS011;37382;45.192;9.790;2023-09-18T08:46:27;53.42;;;38.35;;
51298;SDS011;37382;45.192;9.790;2023-09-18T08:48:58;52.03;;;37.97;;
51298;SDS011;37382;45.192;9.790;2023-09-18T08:51:26;54.05;;;37.67;;
51298;SDS011;37382;45.192;9.790;2023-09-18T08:53:55;56.05;;;38.33;;
51298;SDS011;37382;45.192;9.790;2023-09-18T08:56:24;49.30;;;37.45;;
51298;SDS011;37382;45.192;9.790;2023-09-18T08:58:52;52.30;;;37.45;;
51298;SDS011;37382;45.192;9.790;2023-09-18T09:01:21;61.13;;;37.10;;
51298;SDS011;37382;45.192;9.790;2023-09-18T09:03:49;54.60;;;37.80;;
51298;SDS011;37382;45.192;9.790;2023-09-18T09:06:17;60.67;;;38.85;;
51298;SDS011;37382;45.192;9.790;2023-09-18T09:08:45;60.88;;;38.17;;
51298;SDS011;37382;45.192;9.790;2023-09-18T09:11:13;56.30;;;38.33;;
51298;SDS011;37382;45.192;9.790;2023-09-18T09:13:41;58.15;;;37.55;;
51298;SDS011;37382;45.192;9.790;2023-09-18T09:16:13;50.15;;;37.88;;
51298;SDS011;37382;45.192;9.790;2023-09-18T09:18:48;56.70;;;37.38;;
51298;SDS011;37382;45.192;9.790;2023-09-18T09:21:19;51.72;;;34.63;;
51298;SDS011;37382;45.192;9.790;2023-09-18T09:23:48;52.88;;;36.08;;
51298;SDS011;37382;45.192;9.790;2023-09-18T09:26:21;53.58;;;32.00;;
51298;SDS011;37382;45.192;9.790;2023-09-18T09:28:50;55.85;;;33.70;;
51298;SDS011;37382;45.192;9.790;2023-09-18T09:31:23;49.95;;;33.92;;
51298;SDS011;37382;45.192;9.790;2023-09-18T09:33:52;52.00;;;32.72;;
51298;SDS011;37382;45.192;9.790;2023-09-18T09:36:21;40.83;;;30.42;;
51298;SDS011;37382;45.192;9.790;2023-09-18T09:38:49;41.50;;;30.98;;
51298;SDS011;37382;45.192;9.790;2023-09-18T09:41:23;41.83;;;29.90;;
51298;SDS011;37382;45.192;9.790;2023-09-18T09:43:55;42.85;;;30.10;;
51298;SDS011;37382;45.192;9.790;2023-09-18T09:46:24;39.45;;;30.50;;
51298;SDS011;37382;45.192;9.790;2023-09-18T09:48:58;43.42;;;32.28;;
51298;SDS011;37382;45.192;9.790;2023-09-18T09:51:30;39.53;;;29.48;;
51298;SDS011;37382;45.192;9.790;2023-09-18T09:53:59;48.33;;;29.60;;
51298;SDS011;37382;45.192;9.790;2023-09-18T09:56:47;45.08;;;31.00;;
51298;SDS011;37382;45.192;9.790;2023-09-18T09:59:18;42.78;;;30.38;;
51298;SDS011;37382;45.192;9.790;2023-09-18T10:01:47;40.28;;;28.77;;
51298;SDS011;37382;45.192;9.790;2023-09-18T10:04:18;40.70;;;27.88;;
51298;SDS011;37382;45.192;9.790;2023-09-18T10:06:49;48.78;;;28.05;;
51298;SDS011;37382;45.192;9.790;2023-09-18T10:09:22;39.45;;;27.73;;
51298;SDS011;37382;45.192;9.790;2023-09-18T10:11:52;43.03;;;26.60;;
51298;SDS011;37382;45.192;9.790;2023-09-18T10:14:29;39.60;;;27.03;;
51298;SDS011;37382;45.192;9.790;2023-09-18T10:17:19;31.83;;;24.80;;
51298;SDS011;37382;45.192;9.790;2023-09-18T10:22:48;34.50;;;24.80;;
51298;SDS011;37382;45.192;9.790;2023-09-18T10:25:21;31.67;;;25.40;;
51298;SDS011;37382;45.192;9.790;2023-09-18T10:27:51;31.92;;;24.67;;
51298;SDS011;37382;45.192;9.790;2023-09-18T10:30:39;35.40;;;26.65;;
51298;SDS011;37382;45.192;9.790;2023-09-18T10:33:08;40.60;;;24.08;;
51298;SDS011;37382;45.192;9.790;2023-09-18T10:35:37;32.75;;;24.10;;
51298;SDS011;37382;45.192;9.790;2023-09-18T10:38:06;37.58;;;25.77;;
51298;SDS011;37382;45.192;9.790;2023-09-18T10:40:35;40.97;;;25.10;;
51298;SDS011;37382;45.192;9.790;2023-09-18T10:43:04;33.80;;;24.83;;
51298;SDS011;37382;45.192;9.790;2023-09-18T10:45:36;38.00;;;25.20;;
51298;SDS011;37382;45.192;9.790;2023-09-18T10:48:05;40.67;;;25.40;;
51298;SDS011;37382;45.192;9.790;2023-09-18T10:50:36;40.22;;;25.48;;
51298;SDS011;37382;45.192;9.790;2023-09-18T10:53:04;41.72;;;26.73;;
51298;SDS011;37382;45.192;9.790;2023-09-18T10:55:31;45.88;;;26.52;;
51298;SDS011;37382;45.192;9.790;2023-09-18T10:58:00;46.17;;;27.80;;
51298;SDS011;37382;45.192;9.790;2023-09-18T11:00:29;42.20;;;27.52;;
51298;SDS011;37382;45.192;9.790;2023-09-18T11:03:12;55.15;;;27.65;;
51298;SDS011;37382;45.192;9.790;2023-09-18T11:05:46;42.83;;;27.13;;
51298;SDS011;37382;45.192;9.790;2023-09-18T11:08:31;39.70;;;26.02;;
51298;SDS011;37382;45.192;9.790;2023-09-18T11:11:10;50.30;;;27.35;;
51298;SDS011;37382;45.192;9.790;2023-09-18T11:13:44;51.90;;;27.40;;
51298;SDS011;37382;45.192;9.790;2023-09-18T11:21:27;38.25;;;27.58;;
51298;SDS011;37382;45.192;9.790;2023-09-18T11:23:57;40.05;;;26.75;;
51298;SDS011;37382;45.192;9.790;2023-09-18T11:26:28;44.53;;;27.75;;
51298;SDS011;37382;45.192;9.790;2023-09-18T11:29:07;35.83;;;26.23;;
51298;SDS011;37382;45.192;9.790;2023-09-18T11:34:22;48.92;;;27.95;;
51298;SDS011;37382;45.192;9.790;2023-09-18T11:37:00;46.88;;;27.10;;
51298;SDS011;37382;45.192;9.790;2023-09-18T11:39:39;34.90;;;23.95;;
51298;SDS011;37382;45.192;9.790;2023-09-18T11:42:08;47.78;;;24.15;;
51298;SDS011;37382;45.192;9.790;2023-09-18T11:44:38;40.70;;;25.83;;
51298;SDS011;37382;45.192;9.790;2023-09-18T11:47:15;57.17;;;25.83;;
51298;SDS011;37382;45.192;9.790;2023-09-18T11:49:51;40.90;;;26.08;;
51298;SDS011;37382;45.192;9.790;2023-09-18T11:52:26;53.97;;;26.45;;
51298;SDS011;37382;45.192;9.790;2023-09-18T11:54:55;46.63;;;25.50;;
51298;SDS011;37382;45.192;9.790;2023-09-18T11:57:24;42.35;;;25.77;;
51298;SDS011;37382;45.192;9.790;2023-09-18T11:59:53;48.95;;;27.30;;
51298;SDS011;37382;45.192;9.790;2023-09-18T12:02:29;50.65;;;27.20;;
51298;SDS011;37382;45.192;9.790;2023-09-18T12:05:15;44.90;;;26.15;;
51298;SDS011;37382;45.192;9.790;2023-09-18T12:07:45;51.95;;;27.33;;
51298;SDS011;37382;45.192;9.790;2023-09-18T12:10:15;50.47;;;26.80;;
51298;SDS011;37382;45.192;9.790;2023-09-18T12:12:44;46.40;;;25.15;;
51298;SDS011;37382;45.192;9.790;2023-09-18T12:15:13;46.08;;;24.27;;
51298;SDS011;37382;45.192;9.790;2023-09-18T12:17:42;48.93;;;25.37;;
51298;SDS011;37382;45.192;9.790;2023-09-18T12:20:14;43.75;;;24.95;;
51298;SDS011;37382;45.192;9.790;2023-09-18T12:22:49;45.78;;;24.60;;
51298;SDS011;37382;45.192;9.790;2023-09-18T12:25:18;41.40;;;25.23;;
51298;SDS011;37382;45.192;9.790;2023-09-18T12:27:46;47.30;;;25.77;;
51298;SDS011;37382;45.192;9.790;2023-09-18T12:30:19;47.22;;;24.13;;
51298;SDS011;37382;45.192;9.790;2023-09-18T12:32:49;48.05;;;24.38;;
51298;SDS011;37382;45.192;9.790;2023-09-18T12:35:20;54.47;;;26.00;;
51298;SDS011;37382;45.192;9.790;2023-09-18T12:37:48;58.35;;;25.60;;
51298;SDS011;37382;45.192;9.790;2023-09-18T12:40:20;42.30;;;25.58;;
51298;SDS011;37382;45.192;9.790;2023-09-18T12:42:55;43.30;;;24.67;;
51298;SDS011;37382;45.192;9.790;2023-09-18T12:45:24;54.47;;;25.52;;
51298;SDS011;37382;45.192;9.790;2023-09-18T12:47:56;38.97;;;24.05;;
51298;SDS011;37382;45.192;9.790;2023-09-18T12:50:26;53.88;;;25.02;;
51298;SDS011;37382;45.192;9.790;2023-09-18T12:53:05;48.72;;;25.40;;
51298;SDS011;37382;45.192;9.790;2023-09-18T12:55:41;42.33;;;25.98;;
51298;SDS011;37382;45.192;9.790;2023-09-18T12:58:10;41.20;;;25.27;;
51298;SDS011;37382;45.192;9.790;2023-09-18T13:00:44;46.60;;;25.27;;
51298;SDS011;37382;45.192;9.790;2023-09-18T13:03:18;46.88;;;23.95;;
51298;SDS011;37382;45.192;9.790;2023-09-18T13:05:47;52.42;;;26.10;;
51298;SDS011;37382;45.192;9.790;2023-09-18T13:08:20;48.63;;;27.73;;
51298;SDS011;37382;45.192;9.790;2023-09-18T13:10:49;44.80;;;27.33;;
51298;SDS011;37382;45.192;9.790;2023-09-18T13:13:18;53.30;;;30.20;;
51298;SDS011;37382;45.192;9.790;2023-09-18T13:15:47;52.65;;;29.33;;
51298;SDS011;37382;45.192;9.790;2023-09-18T13:18:19;48.28;;;29.67;;
51298;SDS011;37382;45.192;9.790;2023-09-18T13:20:47;53.80;;;31.23;;
51298;SDS011;37382;45.192;9.790;2023-09-18T13:23:17;55.10;;;31.88;;
51298;SDS011;37382;45.192;9.790;2023-09-18T13:25:48;58.83;;;31.40;;
51298;SDS011;37382;45.192;9.790;2023-09-18T13:28:16;55.53;;;31.88;;
51298;SDS011;37382;45.192;9.790;2023-09-18T13:30:47;51.15;;;32.17;;
51298;SDS011;37382;45.192;9.790;2023-09-18T13:33:15;46.55;;;29.33;;
51298;SDS011;37382;45.192;9.790;2023-09-18T13:35:44;50.97;;;30.20;;
51298;SDS011;37382;45.192;9.790;2023-09-18T13:38:13;52.25;;;30.83;;
51298;SDS011;37382;45.192;9.790;2023-09-18T13:40:42;52.58;;;31.55;;
51298;SDS011;37382;45.192;9.790;2023-09-18T13:43:11;55.22;;;30.58;;
51298;SDS011;37382;45.192;9.790;2023-09-18T13:45:40;46.45;;;30.65;;
51298;SDS011;37382;45.192;9.790;2023-09-18T13:48:09;51.47;;;30.30;;
51298;SDS011;37382;45.192;9.790;2023-09-18T13:50:37;48.33;;;31.05;;
51298;SDS011;37382;45.192;9.790;2023-09-18T13:53:06;55.53;;;30.77;;
51298;SDS011;37382;45.192;9.790;2023-09-18T13:55:34;48.05;;;29.95;;
51298;SDS011;37382;45.192;9.790;2023-09-18T13:58:02;49.25;;;28.67;;
51298;SDS011;37382;45.192;9.790;2023-09-18T14:00:31;46.58;;;28.80;;
51298;SDS011;37382;45.192;9.790;2023-09-18T14:03:00;49.35;;;31.20;;
51298;SDS011;37382;45.192;9.790;2023-09-18T14:05:30;50.95;;;28.77;;
51298;SDS011;37382;45.192;9.790;2023-09-18T14:08:01;59.80;;;30.35;;
51298;SDS011;37382;45.192;9.790;2023-09-18T14:10:28;49.40;;;29.67;;
51298;SDS011;37382;45.192;9.790;2023-09-18T14:12:56;47.75;;;29.20;;
51298;SDS011;37382;45.192;9.790;2023-09-18T14:15:26;51.17;;;29.30;;
51298;SDS011;37382;45.192;9.790;2023-09-18T14:17:56;60.67;;;29.33;;
51298;SDS011;37382;45.192;9.790;2023-09-18T14:20:24;42.58;;;27.70;;
51298;SDS011;37382;45.192;9.790;2023-09-18T14:22:52;46.10;;;28.50;;
51298;SDS011;37382;45.192;9.790;2023-09-18T14:25:19;44.25;;;28.27;;
51298;SDS011;37382;45.192;9.790;2023-09-18T14:27:48;40.80;;;28.40;;
51298;SDS011;37382;45.192;9.790;2023-09-18T14:30:15;50.95;;;29.42;;
51298;SDS011;37382;45.192;9.790;2023-09-18T14:32:43;51.78;;;25.67;;
51298;SDS011;37382;45.192;9.790;2023-09-18T14:35:11;44.28;;;26.60;;
51298;SDS011;37382;45.192;9.790;2023-09-18T14:37:41;44.03;;;24.75;;
51298;SDS011;37382;45.192;9.790;2023-09-18T14:40:09;42.42;;;23.58;;
51298;SDS011;37382;45.192;9.790;2023-09-18T14:42:39;49.47;;;22.83;;
51298;SDS011;37382;45.192;9.790;2023-09-18T14:45:06;41.65;;;22.52;;
51298;SDS011;37382;45.192;9.790;2023-09-18T14:47:34;37.70;;;19.50;;
51298;SDS011;37382;45.192;9.790;2023-09-18T14:50:02;29.08;;;18.77;;
51298;SDS011;37382;45.192;9.790;2023-09-18T14:52:31;34.20;;;19.23;;
51298;SDS011;37382;45.192;9.790;2023-09-18T14:54:59;38.95;;;17.60;;
51298;SDS011;37382;45.192;9.790;2023-09-18T14:57:27;32.97;;;16.60;;
51298;SDS011;37382;45.192;9.790;2023-09-18T14:59:55;38.38;;;17.13;;
51298;SDS011;37382;45.192;9.790;2023-09-18T15:02:23;34.45;;;15.57;;
51298;SDS011;37382;45.192;9.790;2023-09-18T15:04:56;31.17;;;16.27;;
51298;SDS011;37382;45.192;9.790;2023-09-18T15:07:24;36.42;;;15.02;;
51298;SDS011;37382;45.192;9.790;2023-09-18T15:09:52;36.30;;;14.60;;
51298;SDS011;37382;45.192;9.790;2023-09-18T15:12:20;34.53;;;9.00;;
51298;SDS011;37382;45.192;9.790;2023-09-18T15:14:47;31.52;;;6.50;;
51298;SDS011;37382;45.192;9.790;2023-09-18T15:17:15;29.02;;;6.32;;
51298;SDS011;37382;45.192;9.790;2023-09-18T15:19:43;33.33;;;6.18;;
51298;SDS011;37382;45.192;9.790;2023-09-18T15:22:16;35.45;;;5.50;;
51298;SDS011;37382;45.192;9.790;2023-09-18T15:24:44;47.33;;;5.13;;
51298;SDS011;37382;45.192;9.790;2023-09-18T15:27:11;29.88;;;5.72;;
51298;SDS011;37382;45.192;9.790;2023-09-18T15:29:39;34.38;;;5.28;;
51298;SDS011;37382;45.192;9.790;2023-09-18T15:32:06;31.58;;;5.93;;
51298;SDS011;37382;45.192;9.790;2023-09-18T15:34:35;27.02;;;4.78;;
51298;SDS011;37382;45.192;9.790;2023-09-18T15:37:03;26.55;;;5.25;;
51298;SDS011;37382;45.192;9.790;2023-09-18T15:39:32;38.45;;;5.30;;
51298;SDS011;37382;45.192;9.790;2023-09-18T15:42:02;25.73;;;5.32;;
51298;SDS011;37382;45.192;9.790;2023-09-18T15:44:30;29.15;;;4.07;;
51298;SDS011;37382;45.192;9.790;2023-09-18T15:46:58;20.48;;;4.18;;
51298;SDS011;37382;45.192;9.790;2023-09-18T15:49:26;20.65;;;3.42;;
51298;SDS011;37382;45.192;9.790;2023-09-18T15:51:54;20.45;;;3.38;;
51298;SDS011;37382;45.192;9.790;2023-09-18T15:54:22;15.30;;;2.97;;
51298;SDS011;37382;45.192;9.790;2023-09-18T15:56:50;29.50;;;2.75;;
51298;SDS011;37382;45.192;9.790;2023-09-18T15:59:18;32.20;;;3.20;;
51298;SDS011;37382;45.192;9.790;2023-09-18T16:01:46;17.20;;;2.92;;
51298;SDS011;37382;45.192;9.790;2023-09-18T16:04:14;18.25;;;3.25;;
51298;SDS011;37382;45.192;9.790;2023-09-18T16:06:41;27.40;;;3.08;;
51298;SDS011;37382;45.192;9.790;2023-09-18T16:09:09;20.83;;;3.42;;
51298;SDS011;37382;45.192;9.790;2023-09-18T16:11:37;18.17;;;3.15;;
51298;SDS011;37382;45.192;9.790;2023-09-18T16:14:05;21.00;;;2.75;;
51298;SDS011;37382;45.192;9.790;2023-09-18T16:16:34;12.30;;;2.90;;
51298;SDS011;37382;45.192;9.790;2023-09-18T16:19:02;19.80;;;2.72;;
51298;SDS011;37382;45.192;9.790;2023-09-18T16:21:30;17.27;;;2.88;;
51298;SDS011;37382;45.192;9.790;2023-09-18T16:23:59;20.30;;;2.83;;
51298;SDS011;37382;45.192;9.790;2023-09-18T16:26:27;22.98;;;2.72;;
51298;SDS011;37382;45.192;9.790;2023-09-18T16:28:54;14.27;;;2.55;;
51298;SDS011;37382;45.192;9.790;2023-09-18T16:31:22;22.55;;;3.42;;
51298;SDS011;37382;45.192;9.790;2023-09-18T16:33:50;24.58;;;3.15;;
51298;SDS011;37382;45.192;9.790;2023-09-18T16:36:18;17.77;;;2.92;;
51298;SDS011;37382;45.192;9.790;2023-09-18T16:38:47;18.88;;;2.85;;
51298;SDS011;37382;45.192;9.790;2023-09-18T16:41:15;21.83;;;3.00;;
51298;SDS011;37382;45.192;9.790;2023-09-18T16:43:42;28.15;;;2.78;;
51298;SDS011;37382;45.192;9.790;2023-09-18T16:46:10;16.25;;;2.63;;
51298;SDS011;37382;45.192;9.790;2023-09-18T16:48:38;24.13;;;3.55;;
51298;SDS011;37382;45.192;9.790;2023-09-18T16:51:06;16.42;;;3.25;;
51298;SDS011;37382;45.192;9.790;2023-09-18T16:53:36;24.85;;;3.20;;
51298;SDS011;37382;45.192;9.790;2023-09-18T16:56:05;18.58;;;3.30;;
51298;SDS011;37382;45.192;9.790;2023-09-18T16:58:32;15.80;;;3.22;;
51298;SDS011;37382;45.192;9.790;2023-09-18T17:01:00;18.70;;;2.83;;
51298;SDS011;37382;45.192;9.790;2023-09-18T17:03:29;18.05;;;2.80;;
51298;SDS011;37382;45.192;9.790;2023-09-18T17:05:57;22.30;;;2.30;;
51298;SDS011;37382;45.192;9.790;2023-09-18T17:08:25;20.48;;;2.80;;
51298;SDS011;37382;45.192;9.790;2023-09-18T17:10:53;26.20;;;2.95;;
51298;SDS011;37382;45.192;9.790;2023-09-18T17:13:21;31.27;;;3.40;;
51298;SDS011;37382;45.192;9.790;2023-09-18T17:15:50;14.35;;;2.53;;
51298;SDS011;37382;45.192;9.790;2023-09-18T17:18:17;23.52;;;2.88;;
51298;SDS011;37382;45.192;9.790;2023-09-18T17:20:45;29.88;;;2.72;;
51298;SDS011;37382;45.192;9.790;2023-09-18T17:23:13;24.30;;;2.80;;
51298;SDS011;37382;45.192;9.790;2023-09-18T17:25:41;22.02;;;2.50;;
51298;SDS011;37382;45.192;9.790;2023-09-18T17:28:13;15.20;;;1.90;;
51298;SDS011;37382;45.192;9.790;2023-09-18T17:30:42;17.50;;;2.58;;
51298;SDS011;37382;45.192;9.790;2023-09-18T17:33:09;26.20;;;2.30;;
51298;SDS011;37382;45.192;9.790;2023-09-18T17:35:37;16.42;;;2.30;;
51298;SDS011;37382;45.192;9.790;2023-09-18T17:38:06;20.77;;;2.78;;
51298;SDS011;37382;45.192;9.790;2023-09-18T17:40:34;31.92;;;2.70;;
51298;SDS011;37382;45.192;9.790;2023-09-18T17:43:02;18.52;;;2.97;;
51298;SDS011;37382;45.192;9.790;2023-09-18T17:45:30;14.20;;;2.92;;
51298;SDS011;37382;45.192;9.790;2023-09-18T17:47:57;17.83;;;2.72;;
51298;SDS011;37382;45.192;9.790;2023-09-18T17:50:25;23.63;;;2.97;;
51298;SDS011;37382;45.192;9.790;2023-09-18T17:52:53;16.75;;;2.40;;
51298;SDS011;37382;45.192;9.790;2023-09-18T17:55:20;20.25;;;2.80;;
51298;SDS011;37382;45.192;9.790;2023-09-18T17:57:48;24.35;;;2.90;;
51298;SDS011;37382;45.192;9.790;2023-09-18T18:00:25;26.48;;;3.33;;
51298;SDS011;37382;45.192;9.790;2023-09-18T18:02:52;39.22;;;3.28;;
51298;SDS011;37382;45.192;9.790;2023-09-18T18:05:21;27.92;;;3.25;;
51298;SDS011;37382;45.192;9.790;2023-09-18T18:07:53;22.13;;;2.70;;
51298;SDS011;37382;45.192;9.790;2023-09-18T18:10:21;37.38;;;3.30;;
51298;SDS011;37382;45.192;9.790;2023-09-18T18:12:49;21.60;;;3.40;;
51298;SDS011;37382;45.192;9.790;2023-09-18T18:15:17;22.35;;;3.47;;
51298;SDS011;37382;45.192;9.790;2023-09-18T18:17:45;21.25;;;3.70;;
51298;SDS011;37382;45.192;9.790;2023-09-18T18:20:13;27.98;;;4.15;;
51298;SDS011;37382;45.192;9.790;2023-09-18T18:22:43;20.15;;;3.85;;
51298;SDS011;37382;45.192;9.790;2023-09-18T18:25:10;27.38;;;5.13;;
51298;SDS011;37382;45.192;9.790;2023-09-18T18:27:39;36.58;;;4.88;;
51298;SDS011;37382;45.192;9.790;2023-09-18T18:30:07;29.13;;;4.90;;
51298;SDS011;37382;45.192;9.790;2023-09-18T18:32:36;34.60;;;4.95;;
51298;SDS011;37382;45.192;9.790;2023-09-18T18:35:04;39.95;;;5.22;;
51298;SDS011;37382;45.192;9.790;2023-09-18T18:37:31;31.80;;;6.10;;
51298;SDS011;37382;45.192;9.790;2023-09-18T18:39:59;33.40;;;6.40;;
51298;SDS011;37382;45.192;9.790;2023-09-18T18:42:27;34.05;;;6.47;;
51298;SDS011;37382;45.192;9.790;2023-09-18T18:44:55;36.33;;;8.20;;
51298;SDS011;37382;45.192;9.790;2023-09-18T18:47:23;30.40;;;8.68;;
51298;SDS011;37382;45.192;9.790;2023-09-18T18:49:50;27.83;;;8.32;;
51298;SDS011;37382;45.192;9.790;2023-09-18T18:52:18;25.33;;;7.38;;
51298;SDS011;37382;45.192;9.790;2023-09-18T18:54:47;22.30;;;5.57;;
51298;SDS011;37382;45.192;9.790;2023-09-18T18:57:18;21.58;;;5.85;;
51298;SDS011;37382;45.192;9.790;2023-09-18T19:02:14;30.92;;;6.50;;
51298;SDS011;37382;45.192;9.790;2023-09-18T19:04:42;33.88;;;5.85;;
51298;SDS011;37382;45.192;9.790;2023-09-18T19:07:10;27.20;;;5.47;;
51298;SDS011;37382;45.192;9.790;2023-09-18T19:09:39;23.83;;;5.60;;
51298;SDS011;37382;45.192;9.790;2023-09-18T19:12:08;20.40;;;4.88;;
51298;SDS011;37382;45.192;9.790;2023-09-18T19:14:36;11.15;;;4.63;;
51298;SDS011;37382;45.192;9.790;2023-09-18T19:17:04;18.52;;;4.78;;
51298;SDS011;37382;45.192;9.790;2023-09-18T19:19:32;12.57;;;4.30;;